الصفحة الرئيسية
METAR-TAF:

METAR-TAF

مطار :

Nogales, أريزونا, الولايات المتحدة

دائرة عرض: 31-25-15N, خط طول: 110-50-45W, ارتفاع: 1198 متر

مراقبة الطقس الحالي

تاريخ ووقت الإصدار 55 دقيقة قبل الساعة 01:54UTC
ريح 10 عقدة من الجنوب/الجنوب الغربي
درجة الحرارة 24°درجة مئوية
الرطوبة 61%
ضغط 1019 hPa
الرؤية: 16.1 كم
غيوم متفرقة على ارتفاع 8500 قدم

METAR: KOLS 230154Z AUTO 20010KT 10SM SCT085 24/16 A3008 RMK AO2 SLP125 T02440156

زمن: 19:49 (02:49 UTC)

توقعات

تاريخ ووقت الإصدار 3ساعات و 14 دقيقة قبل الساعة 23:35UTC
التوقعات صالحة من23 الساعة 00 UTC إلى 23 الساعة 24 UTC
ريح 11 عقدة من الجنوب تتزايد حتى 18 عقدة
الرؤية: 10 كم
غيوم متفرقة على ارتفاع 5000 قدم
غيوم مفككة على ارتفاع 10000 قدم
من 23 الساعة 0200 UTC
ريح 3 عقدةمن اتجاهات متغيرة
الرؤية: 10 كم
غيوم قليلة على ارتفاع 5000 قدم
غيوم مفككة على ارتفاع 11000 قدم
من 23 الساعة 1800 UTC
ريح 8 عقدة من الجنوب/الجنوب الغربي
الرؤية: 10 كم
غيوم متفرقة على ارتفاع 5000 قدم
غيوم مفككة على ارتفاع 11000 قدم

TAF: KOLS 222335Z 2300/2324 19011G18KT P6SM SCT050 BKN100 FM230200 VRB03KT P6SM FEW050 BKN110 FM231800 21008KT P6SM SCT050 BKN110

أرصاد الطقس والتوقعات من أكثر من 4000 مطار (تقارير الطقس للمطار METAR والتنبؤ بالطقس بالمطارTAF).

المحطات المتاحة هي النقط الصفراء والحمراء على الخريطة.

حرك المؤشر فوق النقطة لمعرفة اسم المحطة.

ثم انقر لمعرفة أرصاد وتوقعات الطقس.

لتغيير الخارطة: اضغط على الأزرار الخضراء مع رمز الصليب الأسود للتكبير. على الزر الأخضر مع شرطة للتصغير، أو على الأسهم الخضراء للخرائط المجاورة.


METAR-TAF: